• Join FlightAware (Why Join?)
  • Login
  • US Flag 
11:28PM EST


 

Airport Tracker/Info


-or-


 

Live Flight TrackerFlight Track Log ✈ AIP5013 ✈ 05-Nov-2009 ✈ KMSO - KBIL

Flight Track Log - Related Links

Times and Time Zones

All times are in EST time to prevent confusion due to time zone crossing. See the AIP5013 flight status page for this flight to view local times or setup timezone preferences in your user account.

Time Position Orientation Groundspeed Altitude Reporting Facility
EST Latitude Longitude Course Direction KTS MPH feet Rate Location/Type
01:42AM 46.9158 -114.0720 291° West 25,000  Level Salt Lake Center
01:43AM 46.9272 -114.1150 231° Southwest 206 237 25,000 -10,080 Level Salt Lake Center
01:44AM 46.9206 -114.1270 118° Southeast 25 29 4,900 -8,820 Descending Salt Lake Center
01:45AM 46.8975 -114.0640 95° East 119 137 7,400 2,160 Climbing Salt Lake Center
01:46AM 46.8931 -113.9910 108° East 173 199 9,300 2,100 Climbing Salt Lake Center
01:47AM 46.8747 -113.9060 104° East 197 227 11,700 1,920 Climbing Salt Lake Center
01:48AM 46.8622 -113.8320 106° East 202 232 13,200 1,680 Climbing Salt Lake Center
01:49AM 46.8436 -113.7400 102° East 213 245 15,100 1,500 Climbing Salt Lake Center
01:50AM 46.8314 -113.6540 105° East 227 261 16,300 1,320 Climbing Salt Lake Center
01:51AM 46.8131 -113.5540 106° East 227 261 17,800 1,380 Climbing Salt Lake Center
01:52AM 46.7964 -113.4680 102° East 227 261 19,100 1,260 Climbing Salt Lake Center
01:53AM 46.7819 -113.3680 103° East 232 267 20,400 1,140 Climbing Salt Lake Center
01:54AM 46.7675 -113.2760 105° East 232 267 21,400 900 Climbing Salt Lake Center
01:55AM 46.7506 -113.1810 108° East 232 267 22,300 780 Climbing Salt Lake Center
01:56AM 46.7297 -113.0870 105° East 232 267 23,000 300 Climbing Salt Lake Center
01:57AM 46.7111 -112.9830 104° East 245 282 23,000  Level Salt Lake Center
01:58AM 46.6922 -112.8740 105° East 256 295 23,000 -60 Level Salt Lake Center
01:59AM 46.6714 -112.7640 105° East 270 311 22,900  Descending Salt Lake Center
02:00AM 46.6506 -112.6490 105° East 286 329 23,000  Climbing Salt Lake Center
02:01AM 46.6294 -112.5360 108° East 286 329 22,900 -60 Descending Salt Lake Center
02:02AM 46.6042 -112.4210 105° East 292 336 22,900  Level Salt Lake Center
02:03AM 46.5828 -112.3020 106° East 292 336 23,000  Climbing Salt Lake Center
02:04AM 46.5614 -112.1930 106° East 287 330 23,000 -60 Level Salt Lake Center
02:05AM 46.5378 -112.0750 105° East 287 330 22,900  Descending Salt Lake Center
02:06AM 46.5164 -111.9630 107° East 287 330 23,000  Climbing Salt Lake Center
02:07AM 46.4864 -111.8240 105° East 292 336 23,000  Level Salt Lake Center
02:08AM 46.4647 -111.7060 107° East 292 336 23,000  Level Salt Lake Center
02:09AM 46.4428 -111.6010 103° East 301 346 23,000 -60 Level Salt Lake Center
02:10AM 46.4228 -111.4800 107° East 301 346 22,900  Descending Salt Lake Center
02:11AM 46.3983 -111.3650 107° East 301 346 23,000  Climbing Salt Lake Center
02:12AM 46.3742 -111.2480 104° East 301 346 23,000  Level Salt Lake Center
02:13AM 46.3539 -111.1280 106° East 301 346 23,000  Level Salt Lake Center
02:14AM 46.3292 -111.0070 107° East 301 346 23,000  Level Salt Lake Center
02:15AM 46.3003 -110.8720 104° East 310 357 23,000 -60 Level Salt Lake Center
02:16AM 46.2797 -110.7550 106° East 299 344 22,900  Descending Salt Lake Center
02:17AM 46.2589 -110.6530 106° East 299 344 23,000 -240 Climbing Salt Lake Center
02:18AM 46.2339 -110.5240 107° East 299 344 22,500 -540 Descending Salt Lake Center
02:19AM 46.2086 -110.4040 108° East 307 353 22,000 -600 Descending Salt Lake Center
02:20AM 46.1814 -110.2820 110° East 313 360 21,400 -420 Descending Salt Lake Center
02:21AM 46.1558 -110.1800 106° East 308 354 21,200 -300 Descending Salt Lake Center
02:22AM 46.1303 -110.0520 108° East 303 349 20,800 -300 Descending Salt Lake Center
02:23AM 46.1047 -109.9360 107° East 303 349 20,600 -360 Descending Salt Lake Center
02:24AM 46.0789 -109.8160 109° East 303 349 20,100 -780 Descending Salt Lake Center
02:25AM 46.0508 -109.7000 107° East 303 349 19,100 -1,200 Descending Salt Lake Center
02:26AM 46.0250 -109.5780 107° East 314 361 17,800 -1,200 Descending Salt Lake Center
02:27AM 45.9986 -109.4560 109° East 314 361 16,700 -1,440 Descending Salt Lake Center
02:28AM 45.9683 -109.3320 105° East 326 375 15,000 -1,800 Descending Salt Lake Center
02:29AM 45.9439 -109.2010 118° Southeast 326 375 13,200 -1,920 Descending Salt Lake Center
02:29AM 45.9286 -109.1600 95° East 339 390 12,500 -1,800 Descending Salt Lake Center
02:30AM 45.9233 -109.0740 104° East 332 382 11,400 -1,800 Descending Salt Lake Center
02:31AM 45.9028 -108.9520 104° East 327 376 9,500 -1,740 Descending Salt Lake Center
02:32AM 45.8847 -108.8480 110° East 305 351 8,000 -1,620 Descending Salt Lake Center
02:33AM 45.8558 -108.7330 106° East 274 315 6,400 -1,560 Descending Salt Lake Center
02:34AM 45.8375 -108.6440 112° Southeast 259 298 4,900 -1,260 Descending Salt Lake Center
02:35AM 45.8178 -108.5740 112° Southeast 219 252 3,900 -660 Descending Salt Lake Center
02:36AM 45.8067 -108.5350 117° Southeast 127 146 3,600 -180 Descending Salt Lake Center
02:37AM 45.7889 -108.4850 116° Southeast 115 132 3,600 4,680 Level Salt Lake Center
02:38AM 45.7736 -108.4410 116° Southeast 115 132 13,000 9,360 Climbing Salt Lake Center